Time;durP1;ratioP1;P1;durP2;ratioP2;P2;SDS_P1;SDS_P2;PMS_P1;PMS_P2;Temp;Humidity;BMP_temperature;BMP_pressure;BME280_temperature;BME280_humidity;BME280_pressure;Samples;Min_cycle;Max_cycle;Signal;HPM_P1;HPM_P2
2022/01/05 00:01:46;;;;;;;0.60;0.60;;;10.40;73.80;;;-142.21;100.00;112049.66;4914776;29;20439;-76
2022/01/05 00:04:15;;;;;;;0.30;0.30;;;10.40;73.80;;;-142.21;100.00;112049.66;4931402;29;20433;-76
2022/01/05 00:06:42;;;;;;;0.50;0.50;;;10.40;73.80;;;-142.21;100.00;112049.66;4955349;29;20464;-78
2022/01/05 00:09:09;;;;;;;0.83;0.40;;;10.40;74.20;;;-142.21;100.00;112049.66;4955687;29;20867;-78
2022/01/05 00:11:37;;;;;;;0.40;0.40;;;10.40;73.50;;;-142.21;100.00;112049.66;4955270;29;20501;-78
2022/01/05 00:14:04;;;;;;;0.40;0.40;;;10.30;73.90;;;-142.21;100.00;112049.66;4955121;29;20480;-76
2022/01/05 00:16:32;;;;;;;0.60;0.60;;;10.40;74.00;;;-142.21;100.00;112049.66;4955200;29;20452;-77
2022/01/05 00:18:59;;;;;;;0.53;0.53;;;10.40;73.90;;;-142.21;100.00;112049.66;4941993;29;20508;-79
2022/01/05 00:21:28;;;;;;;0.50;0.50;;;10.30;73.90;;;-142.21;100.00;112049.66;4936160;29;20811;-76
2022/01/05 00:23:56;;;;;;;0.43;0.43;;;10.40;74.00;;;-142.21;100.00;112049.66;4935931;29;20468;-75
2022/01/05 00:26:25;;;;;;;0.63;0.63;;;10.40;74.20;;;-142.21;100.00;112049.66;4936072;29;20490;-81
2022/01/05 00:28:52;;;;;;;0.40;0.40;;;10.30;73.90;;;-142.21;100.00;112049.66;4935604;29;20549;-81
2022/01/05 00:31:19;;;;;;;0.30;0.30;;;10.30;74.30;;;-142.21;100.00;112049.66;4936404;29;20868;-78
2022/01/05 00:33:47;;;;;;;0.50;0.50;;;10.30;74.30;;;-142.21;100.00;112049.66;4936438;29;20513;-78
2022/01/05 00:36:14;;;;;;;0.40;0.40;;;10.40;74.60;;;-142.21;100.00;112049.66;4935875;29;20442;-77
2022/01/05 00:38:43;;;;;;;0.33;0.33;;;10.40;74.40;;;-142.21;100.00;112049.66;4936205;29;20449;-75
2022/01/05 00:41:10;;;;;;;0.40;0.40;;;10.40;74.40;;;-142.21;100.00;112049.66;4934995;29;20494;-76
2022/01/05 00:43:38;;;;;;;0.40;0.40;;;10.50;74.60;;;-142.21;100.00;112049.66;4912451;29;20471;-76
2022/01/05 00:46:06;;;;;;;0.80;0.50;;;10.40;74.50;;;-142.21;100.00;112049.66;4920279;29;20585;-76
2022/01/05 00:48:34;;;;;;;0.37;0.37;;;10.50;75.30;;;-142.21;100.00;112049.66;4920600;29;20959;-77
2022/01/05 00:51:03;;;;;;;0.53;0.50;;;10.50;75.30;;;-142.21;100.00;112049.66;4920646;29;20446;-77
2022/01/05 00:53:31;;;;;;;0.43;0.40;;;10.50;75.10;;;-142.21;100.00;112049.66;4920538;29;20525;-78
2022/01/05 00:56:00;;;;;;;0.37;0.37;;;10.50;75.20;;;-142.21;100.00;112049.66;4920875;29;20455;-75
2022/01/05 00:58:27;;;;;;;1.27;0.40;;;10.50;75.10;;;-142.21;100.00;112049.66;4920130;29;20462;-77
2022/01/05 01:00:56;;;;;;;0.73;0.63;;;10.50;75.20;;;-142.21;100.00;112049.66;4933935;29;20533;-78
2022/01/05 01:03:23;;;;;;;0.77;0.60;;;10.50;75.00;;;-142.21;100.00;112049.66;4938246;29;20860;-78
2022/01/05 01:05:51;;;;;;;0.50;0.50;;;10.50;75.00;;;-142.21;100.00;112049.66;4938748;29;20496;-77
2022/01/05 01:08:18;;;;;;;0.47;0.47;;;10.50;74.90;;;-142.21;100.00;112049.66;4938167;29;20513;-78
2022/01/05 01:10:46;;;;;;;0.87;0.40;;;10.50;74.70;;;-142.21;100.00;112049.66;4938714;29;20513;-76
2022/01/05 01:13:17;;;;;;;0.60;0.60;;;10.50;75.30;;;-142.21;100.00;112049.66;4938676;29;20482;-76
2022/01/05 01:15:44;;;;;;;0.60;0.60;;;10.50;75.10;;;-142.21;100.00;112049.66;4938174;29;20457;-79
2022/01/05 01:18:12;;;;;;;1.17;0.37;;;10.50;75.20;;;-142.21;100.00;112049.66;4938492;29;20488;-77
2022/01/05 01:20:40;;;;;;;0.63;0.63;;;10.40;75.10;;;-142.21;100.00;112049.66;4911505;29;20450;-77
2022/01/05 01:23:08;;;;;;;0.60;0.60;;;10.40;75.20;;;-142.21;100.00;112049.66;4919579;29;21024;-81
2022/01/05 01:25:36;;;;;;;0.50;0.50;;;10.40;75.00;;;-142.21;100.00;112049.66;4902278;29;20494;-78
2022/01/05 01:28:03;;;;;;;0.93;0.50;;;10.40;75.40;;;-142.21;100.00;112049.66;4919667;29;20459;-77
2022/01/05 01:30:32;;;;;;;0.50;0.50;;;10.50;75.20;;;-142.21;100.00;112049.66;4932910;29;20485;-77
2022/01/05 01:33:00;;;;;;;0.40;0.40;;;10.50;75.60;;;-142.21;100.00;112049.66;4938355;29;20466;-79
2022/01/05 01:35:28;;;;;;;0.50;0.50;;;10.40;76.00;;;-142.21;100.00;112049.66;4938555;29;20549;-79
2022/01/05 01:37:56;;;;;;;0.57;0.57;;;10.30;75.90;;;-142.21;100.00;112049.66;4938251;29;20454;-77
2022/01/05 01:40:24;;;;;;;0.80;0.40;;;10.30;76.40;;;-142.21;100.00;112049.66;4938481;29;20557;-79
2022/01/05 01:42:52;;;;;;;0.90;0.50;;;10.30;76.20;;;-142.21;100.00;112049.66;4937887;29;20533;-80
2022/01/05 01:45:21;;;;;;;0.67;0.67;;;10.20;76.70;;;-142.21;100.00;112049.66;4937965;29;20521;-79
2022/01/05 01:47:52;;;;;;;0.40;0.40;;;10.20;77.00;;;-142.21;100.00;112049.66;4938466;29;20433;-76
2022/01/05 01:50:20;;;;;;;0.60;0.60;;;10.20;77.00;;;-142.21;100.00;112049.66;4938717;29;20525;-76
2022/01/05 01:52:47;;;;;;;0.40;0.40;;;10.20;76.40;;;-142.21;100.00;112049.66;4937614;29;20481;-76
2022/01/05 01:55:15;;;;;;;1.23;0.80;;;10.20;76.70;;;-142.21;100.00;112049.66;4938418;29;20842;-76
2022/01/05 01:57:45;;;;;;;0.73;0.73;;;10.30;76.70;;;-142.21;100.00;112049.66;4938303;29;20462;-77
2022/01/05 02:00:15;;;;;;;0.60;0.60;;;10.30;76.80;;;-142.21;100.00;112049.66;4929796;29;20443;-78
2022/01/05 02:02:47;;;;;;;0.60;0.60;;;10.30;76.80;;;-142.21;100.00;112049.66;4937980;29;20457;-79
2022/01/05 02:05:17;;;;;;;0.83;0.80;;;10.30;77.90;;;-142.21;100.00;112049.66;4936877;29;20491;-77
2022/01/05 02:07:44;;;;;;;1.30;0.90;;;10.30;76.70;;;-142.21;100.00;112049.66;4937655;29;20981;-79
2022/01/05 02:10:12;;;;;;;0.70;0.70;;;10.30;77.20;;;-142.21;100.00;112049.66;4937553;29;20545;-78
2022/01/05 02:12:40;;;;;;;1.43;0.97;;;10.30;77.20;;;-142.21;100.00;112049.66;4937852;29;20462;-76
2022/01/05 02:15:10;;;;;;;1.70;0.80;;;10.30;77.00;;;-142.21;100.00;112049.66;4904220;29;20508;-78
2022/01/05 02:17:51;;;;;;;1.20;1.10;;;10.30;77.30;;;-142.21;100.00;112049.66;4924869;29;20543;-78
2022/01/05 02:20:23;;;;;;;1.23;1.13;;;10.30;77.50;;;-142.21;100.00;112049.66;4937429;29;20453;-77
2022/01/05 02:22:53;;;;;;;1.63;1.20;;;10.30;77.40;;;-142.21;100.00;112049.66;4937307;29;20508;-78
2022/01/05 02:25:28;;;;;;;1.30;1.20;;;10.30;77.40;;;-142.21;100.00;112049.66;4937023;29;20489;-76
2022/01/05 02:27:57;;;;;;;1.80;1.03;;;10.30;77.90;;;-142.21;100.00;112049.66;4937180;29;20450;-76
2022/01/05 02:30:27;;;;;;;1.10;1.00;;;10.40;77.50;;;-142.21;100.00;112049.66;4937368;29;20490;-75
2022/01/05 02:32:55;;;;;;;1.23;1.13;;;10.40;77.40;;;-142.21;100.00;112049.66;4937646;29;20513;-77
2022/01/05 02:35:24;;;;;;;1.33;1.03;;;10.50;77.00;;;-142.21;100.00;112049.66;4936616;29;20867;-76
2022/01/05 02:37:55;;;;;;;1.93;1.10;;;10.50;76.70;;;-142.21;100.00;112049.66;4937205;29;20458;-77
2022/01/05 02:40:24;;;;;;;0.83;0.80;;;10.50;76.90;;;-142.21;100.00;112049.66;4936876;29;20461;-77
2022/01/05 02:42:55;;;;;;;1.50;1.33;;;10.40;77.00;;;-142.21;100.00;112049.66;4917785;29;20486;-76
2022/01/05 02:45:23;;;;;;;1.20;1.10;;;10.50;77.10;;;-142.21;100.00;112049.66;4917215;29;20489;-76
2022/01/05 02:47:52;;;;;;;1.00;0.90;;;10.50;76.70;;;-142.21;100.00;112049.66;4921146;29;20514;-76
2022/01/05 02:50:19;;;;;;;1.63;1.10;;;10.40;77.10;;;-142.21;100.00;112049.66;4937501;29;20466;-78
2022/01/05 02:52:47;;;;;;;1.23;1.13;;;10.50;76.50;;;-142.21;100.00;112049.66;4936542;29;20517;-76
2022/01/05 02:55:16;;;;;;;1.40;1.27;;;10.40;76.70;;;-142.21;100.00;112049.66;4936159;29;20942;-78
2022/01/05 02:57:44;;;;;;;1.10;1.00;;;10.30;76.90;;;-142.21;100.00;112049.66;4936160;29;20457;-77
2022/01/05 03:00:15;;;;;;;1.10;1.00;;;10.30;76.60;;;-142.21;100.00;112049.66;4936460;29;20458;-77
2022/01/05 03:02:42;;;;;;;1.23;1.13;;;10.30;77.00;;;-142.21;100.00;112049.66;4936026;29;20450;-76
2022/01/05 03:05:11;;;;;;;1.20;1.10;;;10.30;76.60;;;-142.21;100.00;112049.66;4936494;29;20966;-76
2022/01/05 03:07:39;;;;;;;1.10;1.10;;;10.30;77.20;;;-142.21;100.00;112049.66;4928770;29;20458;-76
2022/01/05 03:10:10;;;;;;;2.00;1.40;;;10.30;77.30;;;-142.21;100.00;112049.66;4936735;29;20457;-77
2022/01/05 03:12:42;;;;;;;1.80;1.70;;;10.30;77.30;;;-142.21;100.00;112049.66;4937066;29;20461;-78
2022/01/05 03:15:11;;;;;;;2.90;1.30;;;10.20;77.40;;;-142.21;100.00;112049.66;4936338;29;21006;-76
2022/01/05 03:17:39;;;;;;;1.50;1.37;;;10.20;77.40;;;-142.21;100.00;112049.66;4936122;29;20450;-76
2022/01/05 03:20:10;;;;;;;1.20;1.10;;;10.30;77.50;;;-142.21;100.00;112049.66;4937006;29;20456;-77
2022/01/05 03:22:38;;;;;;;2.33;1.10;;;10.30;77.60;;;-142.21;100.00;112049.66;4929227;29;20472;-77
2022/01/05 03:25:15;;;;;;;1.30;1.20;;;10.30;77.20;;;-142.21;100.00;112049.66;4936219;29;20485;-76
2022/01/05 03:27:45;;;;;;;1.30;1.20;;;10.30;77.70;;;-142.21;100.00;112049.66;4936518;29;20451;-76
2022/01/05 03:30:16;;;;;;;1.50;1.37;;;10.30;77.60;;;-142.21;100.00;112049.66;4936159;29;20496;-77
2022/01/05 03:33:03;;;;;;;1.40;1.30;;;10.30;77.40;;;-142.21;100.00;112049.66;4936702;29;20453;-77
2022/01/05 03:35:35;;;;;;;2.00;1.23;;;10.30;77.50;;;-142.21;100.00;112049.66;4936397;29;20553;-78
2022/01/05 03:38:05;;;;;;;1.40;1.30;;;10.40;77.40;;;-142.21;100.00;112049.66;4936289;29;20458;-77
2022/01/05 03:40:34;;;;;;;1.30;1.17;;;10.40;77.50;;;-142.21;100.00;112049.66;4935386;29;20494;-77
2022/01/05 03:43:05;;;;;;;1.73;1.10;;;10.40;77.50;;;-142.21;100.00;112049.66;4929441;29;20525;-78
2022/01/05 03:45:32;;;;;;;2.47;1.40;;;10.40;77.20;;;-142.21;100.00;112049.66;4936523;29;20966;-76
2022/01/05 03:48:00;;;;;;;1.17;1.07;;;10.40;76.60;;;-142.21;100.00;112049.66;4935943;29;20462;-76
2022/01/05 03:50:27;;;;;;;1.30;1.20;;;10.40;76.70;;;-142.21;100.00;112049.66;4936104;29;20457;-78
2022/01/05 03:52:55;;;;;;;1.40;1.30;;;10.40;77.00;;;-142.21;100.00;112049.66;4935925;28;20454;-77
2022/01/05 03:55:22;;;;;;;1.90;1.37;;;10.40;76.70;;;-142.21;100.00;112049.66;4935358;29;20469;-76
2022/01/05 03:57:50;;;;;;;2.40;1.40;;;10.40;76.70;;;-142.21;100.00;112049.66;4935951;29;20457;-77
2022/01/05 04:00:20;;;;;;;2.60;1.60;;;10.40;76.50;;;-142.21;100.00;112049.66;4935340;29;20795;-77
2022/01/05 04:02:48;;;;;;;2.40;1.10;;;10.50;77.10;;;-142.21;100.00;112049.66;4936713;29;20450;-76
2022/01/05 04:05:15;;;;;;;1.40;1.30;;;10.40;76.30;;;-142.21;100.00;112049.66;4935907;29;20473;-77
2022/01/05 04:07:43;;;;;;;1.37;1.20;;;10.30;76.80;;;-142.21;100.00;112049.66;4935250;29;20532;-78
2022/01/05 04:10:10;;;;;;;1.73;1.40;;;10.30;77.30;;;-142.21;100.00;112049.66;4935385;29;20505;-79
2022/01/05 04:12:38;;;;;;;1.50;1.30;;;10.30;77.40;;;-142.21;100.00;112049.66;4934979;29;20540;-78
2022/01/05 04:15:06;;;;;;;1.33;1.20;;;10.30;76.90;;;-142.21;100.00;112049.66;4934520;29;20595;-77
2022/01/05 04:17:35;;;;;;;2.00;1.47;;;10.30;77.20;;;-142.21;100.00;112049.66;4935088;29;20449;-76
2022/01/05 04:20:04;;;;;;;1.10;1.07;;;10.30;77.00;;;-142.21;100.00;112049.66;4935173;29;20476;-76
2022/01/05 04:22:31;;;;;;;0.97;0.80;;;10.30;77.50;;;-142.21;100.00;112049.66;4934979;29;20437;-76
2022/01/05 04:24:59;;;;;;;0.70;0.70;;;10.40;75.90;;;-142.21;100.00;112049.66;4935334;29;20457;-76
2022/01/05 04:27:27;;;;;;;1.77;0.57;;;10.50;75.10;;;-142.21;100.00;112049.66;4935143;29;20486;-75
2022/01/05 04:29:54;;;;;;;0.63;0.63;;;10.40;73.20;;;-142.21;100.00;112049.66;4935893;29;20523;-76
2022/01/05 04:32:21;;;;;;;0.40;0.40;;;10.30;71.30;;;-142.21;100.00;112049.66;4935643;29;20464;-76
2022/01/05 04:34:53;;;;;;;0.50;0.50;;;10.20;70.50;;;-142.21;100.00;112049.66;4935041;29;20549;-76
2022/01/05 04:37:22;;;;;;;0.60;0.60;;;10.20;70.30;;;-142.21;100.00;112049.66;4934922;29;20955;-76
2022/01/05 04:39:50;;;;;;;0.60;0.50;;;10.10;70.10;;;-142.21;100.00;112049.66;4934764;29;20442;-77
2022/01/05 04:42:18;;;;;;;0.63;0.63;;;10.10;70.10;;;-142.21;100.00;112049.66;4935248;29;20473;-76
2022/01/05 04:44:45;;;;;;;0.60;0.60;;;10.10;70.40;;;-142.21;100.00;112049.66;4935305;29;20485;-76
2022/01/05 04:47:13;;;;;;;0.73;0.47;;;10.00;69.30;;;-142.21;100.00;112049.66;4935464;29;20568;-76
2022/01/05 04:49:41;;;;;;;0.50;0.40;;;10.00;69.10;;;-142.21;100.00;112049.66;4935682;29;20461;-75
2022/01/05 04:52:10;;;;;;;0.30;0.30;;;10.00;68.60;;;-142.21;100.00;112049.66;4935511;29;20457;-76
2022/01/05 04:54:37;;;;;;;0.93;0.60;;;10.00;67.80;;;-142.21;100.00;112049.66;4934915;29;20971;-75
2022/01/05 04:57:06;;;;;;;0.40;0.40;;;9.90;68.70;;;-142.21;100.00;112049.66;4934824;29;20454;-75
2022/01/05 04:59:33;;;;;;;0.40;0.40;;;9.90;69.50;;;-142.21;100.00;112049.66;4931592;29;20485;-76
2022/01/05 05:02:01;;;;;;;0.40;0.33;;;9.80;69.00;;;-142.21;100.00;112049.66;4935132;29;20434;-77
2022/01/05 05:04:28;;;;;;;0.57;0.53;;;9.80;69.10;;;-142.21;100.00;112049.66;4935860;29;20458;-77
2022/01/05 05:06:55;;;;;;;0.87;0.80;;;9.80;68.90;;;-142.21;100.00;112049.66;4935396;29;20545;-77
2022/01/05 05:09:24;;;;;;;0.83;0.67;;;9.90;68.60;;;-142.21;100.00;112049.66;4935676;29;20539;-76
2022/01/05 05:11:52;;;;;;;1.47;0.60;;;9.90;68.30;;;-142.21;100.00;112049.66;4935162;29;20477;-76
2022/01/05 05:14:19;;;;;;;0.60;0.60;;;9.90;68.00;;;-142.21;100.00;112049.66;4935110;29;20863;-77
2022/01/05 05:16:47;;;;;;;0.80;0.77;;;9.90;68.00;;;-142.21;100.00;112049.66;4935210;29;21029;-76
2022/01/05 05:19:14;;;;;;;0.57;0.50;;;9.80;67.20;;;-142.21;100.00;112049.66;4934459;29;20810;-77
2022/01/05 05:21:42;;;;;;;0.40;0.40;;;9.90;66.90;;;-142.21;100.00;112049.66;4934434;29;20943;-76
2022/01/05 05:24:10;;;;;;;0.70;0.40;;;9.90;67.30;;;-142.21;100.00;112049.66;4930975;29;20532;-77
2022/01/05 05:26:39;;;;;;;1.10;0.60;;;9.90;67.20;;;-142.21;100.00;112049.66;4937403;29;20571;-76
2022/01/05 05:29:06;;;;;;;0.70;0.60;;;9.80;66.10;;;-142.21;100.00;112049.66;4938130;29;21013;-77
2022/01/05 05:31:33;;;;;;;0.57;0.57;;;9.80;66.90;;;-142.21;100.00;112049.66;4924106;29;20467;-77
2022/01/05 05:34:01;;;;;;;1.00;0.50;;;9.80;66.90;;;-142.21;100.00;112049.66;4919757;29;20987;-76
2022/01/05 05:36:28;;;;;;;0.93;0.63;;;9.80;66.10;;;-142.21;100.00;112049.66;4918168;29;20451;-76
2022/01/05 05:38:56;;;;;;;0.50;0.50;;;9.70;65.80;;;-142.21;100.00;112049.66;4919079;29;20465;-75
2022/01/05 05:41:23;;;;;;;0.80;0.57;;;9.70;65.70;;;-142.21;100.00;112049.66;4918481;29;20506;-76
2022/01/05 05:43:52;;;;;;;0.30;0.30;;;9.60;66.90;;;-142.21;100.00;112049.66;4918980;29;20510;-75
2022/01/05 05:46:19;;;;;;;1.53;0.40;;;9.50;67.00;;;-142.21;100.00;112049.66;4918287;29;20518;-75
2022/01/05 05:48:47;;;;;;;1.73;0.70;;;9.50;67.60;;;-142.21;100.00;112049.66;4918941;29;20463;-76
2022/01/05 05:51:14;;;;;;;0.50;0.50;;;9.40;68.20;;;-142.21;100.00;112049.66;4918835;29;20469;-75
2022/01/05 05:53:42;;;;;;;0.90;0.90;;;9.40;68.00;;;-142.21;100.00;112049.66;4918416;29;20474;-75
2022/01/05 05:56:09;;;;;;;0.63;0.50;;;9.30;68.30;;;-142.21;100.00;112049.66;4918723;29;20463;-76
2022/01/05 05:58:36;;;;;;;1.90;0.90;;;9.20;68.30;;;-142.21;100.00;112049.66;4918526;29;20493;-75
2022/01/05 06:01:06;;;;;;;1.30;0.87;;;9.30;68.60;;;-142.21;100.00;112049.66;4926725;29;20539;-76
2022/01/05 06:03:33;;;;;;;1.43;1.23;;;9.30;68.70;;;-142.21;100.00;112049.66;4937205;29;20458;-76
2022/01/05 06:06:00;;;;;;;1.37;0.80;;;9.20;68.80;;;-142.21;100.00;112049.66;4934720;29;20454;-76
2022/01/05 06:08:28;;;;;;;0.60;0.60;;;9.20;68.60;;;-142.21;100.00;112049.66;4937651;29;20560;-76
2022/01/05 06:10:55;;;;;;;1.43;1.00;;;9.10;68.60;;;-142.21;100.00;112049.66;4937628;29;20558;-76
2022/01/05 06:13:22;;;;;;;1.73;0.80;;;9.10;68.90;;;-142.21;100.00;112049.66;4937218;29;20518;-76
2022/01/05 06:15:50;;;;;;;1.10;0.90;;;9.00;68.90;;;-142.21;100.00;112049.66;4934925;29;20967;-76
2022/01/05 06:18:19;;;;;;;1.80;1.10;;;9.00;68.30;;;-142.21;100.00;112049.66;4937776;29;20809;-75
2022/01/05 06:20:46;;;;;;;1.67;0.83;;;9.00;68.60;;;-142.21;100.00;112049.66;4937276;29;20517;-77
2022/01/05 06:23:13;;;;;;;1.27;1.10;;;9.00;68.70;;;-142.21;100.00;112049.66;4937634;29;20516;-77
2022/01/05 06:25:41;;;;;;;2.15;1.40;;;9.00;69.50;;;-142.21;100.00;112049.66;4936906;29;20537;-78
2022/01/05 06:28:11;;;;;;;1.23;1.00;;;9.00;68.50;;;-142.21;100.00;112049.66;4937269;29;20230;-77
2022/01/05 06:30:39;;;;;;;1.27;1.03;;;9.00;68.70;;;-142.21;100.00;112049.66;4937412;29;20920;-78
2022/01/05 06:33:07;;;;;;;3.13;1.33;;;9.00;69.50;;;-142.21;100.00;112049.66;4931127;29;20482;-76
2022/01/05 06:35:36;;;;;;;1.83;1.37;;;8.90;68.60;;;-142.21;100.00;112049.66;4917872;29;20534;-77
2022/01/05 06:38:04;;;;;;;2.70;1.53;;;8.90;67.90;;;-142.21;100.00;112049.66;4917372;29;20458;-75
2022/01/05 06:40:31;;;;;;;2.80;1.23;;;8.80;67.10;;;-142.21;100.00;112049.66;4918149;29;20446;-77
2022/01/05 06:43:01;;;;;;;2.97;1.50;;;8.80;67.30;;;-142.21;100.00;112049.66;4924053;29;20556;-79
2022/01/05 06:45:28;;;;;;;1.83;1.30;;;8.80;67.10;;;-142.21;100.00;112049.66;4937497;29;20462;-78
2022/01/05 06:47:58;;;;;;;2.83;1.90;;;8.70;66.50;;;-142.21;100.00;112049.66;4936559;29;20489;-77
2022/01/05 06:50:29;;;;;;;3.23;1.77;;;8.70;66.10;;;-142.21;100.00;112049.66;4937195;29;20465;-79
2022/01/05 06:52:58;;;;;;;3.30;1.80;;;8.70;66.50;;;-142.21;100.00;112049.66;4936928;29;20488;-76
2022/01/05 06:55:26;;;;;;;3.70;2.03;;;8.70;64.70;;;-142.21;100.00;112049.66;4936072;29;20441;-77
2022/01/05 06:57:53;;;;;;;1.93;1.67;;;8.70;65.00;;;-142.21;100.00;112049.66;4936977;29;20811;-77
2022/01/05 07:00:23;;;;;;;3.30;1.80;;;8.70;65.80;;;-142.21;100.00;112049.66;4919692;29;20450;-77
2022/01/05 07:02:51;;;;;;;3.03;1.73;;;8.70;65.10;;;-142.21;100.00;112049.66;4925813;29;20456;-76
2022/01/05 07:05:19;;;;;;;2.67;2.10;;;8.70;64.50;;;-142.21;100.00;112049.66;4936142;29;20453;-78
2022/01/05 07:07:46;;;;;;;2.73;1.57;;;8.60;64.10;;;-142.21;100.00;112049.66;4936863;29;21075;-76
2022/01/05 07:10:17;;;;;;;3.03;1.60;;;8.60;63.60;;;-142.21;100.00;112049.66;4937023;29;20454;-76
2022/01/05 07:12:45;;;;;;;4.67;1.70;;;8.60;63.50;;;-142.21;100.00;112049.66;4950072;29;20468;-77
2022/01/05 07:15:16;;;;;;;3.03;1.80;;;8.50;63.00;;;-142.21;100.00;112049.66;4955443;28;20949;-77
2022/01/05 07:17:44;;;;;;;3.57;1.70;;;8.50;63.50;;;-142.21;100.00;112049.66;4954608;29;20426;-77
2022/01/05 07:20:12;;;;;;;3.50;2.00;;;8.50;63.20;;;-142.21;100.00;112049.66;4936778;28;20469;-78
2022/01/05 07:22:40;;;;;;;2.73;1.80;;;8.50;62.80;;;-142.21;100.00;112049.66;4928036;29;20446;-76
2022/01/05 07:25:08;;;;;;;4.13;1.73;;;8.50;62.80;;;-142.21;100.00;112049.66;4936752;29;20517;-76
2022/01/05 07:27:37;;;;;;;4.00;1.90;;;8.50;62.80;;;-142.21;100.00;112049.66;4935316;29;21065;-77
2022/01/05 07:30:07;;;;;;;3.37;1.87;;;8.50;62.50;;;-142.21;100.00;112049.66;4936034;29;20485;-76
2022/01/05 07:32:36;;;;;;;3.53;1.80;;;8.50;62.50;;;-142.21;100.00;112049.66;4935956;29;20574;-76
2022/01/05 07:35:03;;;;;;;4.27;1.80;;;8.50;62.00;;;-142.21;100.00;112049.66;4935480;29;20485;-76
2022/01/05 07:37:31;;;;;;;2.53;1.80;;;8.50;61.60;;;-142.21;100.00;112049.66;4936153;29;20459;-76
2022/01/05 07:39:58;;;;;;;4.77;2.00;;;8.40;61.10;;;-142.21;100.00;112049.66;4935500;29;20453;-76
2022/01/05 07:42:27;;;;;;;6.03;2.10;;;8.30;61.80;;;-142.21;100.00;112049.66;4935904;29;20568;-78
2022/01/05 07:44:57;;;;;;;4.13;2.10;;;8.40;62.90;;;-142.21;100.00;112049.66;4936298;29;20497;-77
2022/01/05 07:47:24;;;;;;;3.03;1.60;;;8.40;62.20;;;-142.21;100.00;112049.66;4935380;29;21006;-77
2022/01/05 07:49:51;;;;;;;4.90;2.50;;;8.40;61.90;;;-142.21;100.00;112049.66;4935374;29;20445;-76
2022/01/05 07:52:19;;;;;;;6.40;2.10;;;8.40;62.70;;;-142.21;100.00;112049.66;4935001;29;20454;-75
2022/01/05 07:54:46;;;;;;;2.90;2.03;;;8.30;62.60;;;-142.21;100.00;112049.66;4935506;29;20446;-76
2022/01/05 07:57:13;;;;;;;4.63;2.17;;;8.30;62.40;;;-142.21;100.00;112049.66;4935016;29;20544;-76
2022/01/05 07:59:41;;;;;;;5.30;2.10;;;8.30;61.90;;;-142.21;100.00;112049.66;4935125;29;20860;-76
2022/01/05 08:02:10;;;;;;;3.43;2.00;;;8.30;63.10;;;-142.21;100.00;112049.66;4935091;29;20851;-76
2022/01/05 08:04:37;;;;;;;3.43;2.00;;;8.40;62.50;;;-142.21;100.00;112049.66;4935589;29;20434;-75
2022/01/05 08:07:05;;;;;;;3.33;2.17;;;8.40;62.20;;;-142.21;100.00;112049.66;4935736;29;20481;-75
2022/01/05 08:09:32;;;;;;;5.63;2.40;;;8.30;62.00;;;-142.21;98.80;112049.66;4934966;29;20489;-75
2022/01/05 08:12:00;;;;;;;4.63;2.03;;;8.20;61.20;;;-142.21;99.36;112049.66;4935489;29;20454;-75
2022/01/05 08:14:28;;;;;;;4.40;2.37;;;8.10;60.30;;;-142.21;97.22;112049.66;4917677;29;20946;-75
2022/01/05 08:16:55;;;;;;;4.43;2.23;;;8.00;60.60;;;-142.21;98.83;112049.66;4935283;29;20461;-75
2022/01/05 08:19:24;;;;;;;4.30;2.10;;;8.00;60.20;;;-142.21;95.10;112049.66;4934580;29;20962;-76
2022/01/05 08:21:51;;;;;;;3.73;2.03;;;8.00;60.00;;;-142.21;93.75;112049.66;4935032;29;20505;-77
2022/01/05 08:24:18;;;;;;;5.50;1.97;;;7.90;58.70;;;-142.21;93.72;112049.66;4935102;29;20453;-76
2022/01/05 08:26:46;;;;;;;3.70;2.00;;;7.80;58.20;;;-142.21;91.80;112049.66;4934570;29;20460;-76
2022/01/05 08:29:13;;;;;;;4.63;2.50;;;7.70;57.50;;;-142.21;92.23;112049.66;4934984;29;20837;-77
2022/01/05 08:31:43;;;;;;;4.40;2.20;;;8.20;57.60;;;-142.21;87.74;112049.66;4934125;29;20453;-80
2022/01/05 08:34:11;;;;;;;6.93;2.53;;;8.40;56.50;;;-142.21;83.40;112049.66;4934850;29;21049;-76
2022/01/05 08:36:51;;;;;;;7.40;2.37;;;8.40;55.20;;;-142.21;83.44;112049.66;4924603;29;20522;-79
2022/01/05 08:39:20;;;;;;;3.93;2.20;;;8.60;53.30;;;-142.21;84.16;112049.66;4935732;29;20796;-78
2022/01/05 08:41:50;;;;;;;6.57;2.43;;;9.20;54.30;;;-142.21;78.77;112049.66;4953610;28;20540;-79
2022/01/05 08:44:17;;;;;;;5.77;2.57;;;9.40;52.30;;;-142.21;79.26;112049.66;4954015;29;20512;-79
2022/01/05 08:46:44;;;;;;;5.03;2.40;;;9.30;51.40;;;-142.21;75.66;112049.66;4953382;29;20529;-78
2022/01/05 08:49:14;;;;;;;5.47;2.20;;;9.10;51.60;;;-142.21;73.66;112049.66;4938149;29;20499;-80
2022/01/05 08:51:44;;;;;;;5.27;1.93;;;9.10;51.80;;;-142.21;72.79;112049.66;4934911;29;20821;-79
2022/01/05 08:54:11;;;;;;;8.50;2.37;;;9.00;50.80;;;-142.21;69.44;112049.66;4935204;29;20476;-79
2022/01/05 08:56:41;;;;;;;4.53;2.40;;;8.80;50.10;;;-142.21;71.61;112049.66;4934250;29;20454;-79
2022/01/05 08:59:08;;;;;;;6.87;2.70;;;8.80;51.10;;;-142.21;70.64;112049.66;4933809;29;20969;-79
2022/01/05 09:01:35;;;;;;;4.47;2.30;;;8.70;50.70;;;-142.21;71.33;112049.66;4936926;29;20454;-79
2022/01/05 09:04:03;;;;;;;4.60;2.47;;;8.80;51.20;;;-142.21;68.37;112049.66;4937859;29;20516;-78
2022/01/05 09:06:30;;;;;;;8.47;2.77;;;8.70;50.30;;;-142.21;66.66;112049.66;4938163;29;20528;-79
2022/01/05 09:08:59;;;;;;;6.53;2.50;;;8.90;50.70;;;-142.21;65.96;112049.66;4937984;29;20496;-77
2022/01/05 09:11:27;;;;;;;6.53;2.70;;;9.30;50.80;;;-142.21;67.22;112049.66;4938402;29;20457;-78
2022/01/05 09:13:54;;;;;;;6.77;2.43;;;9.50;50.70;;;-142.21;65.05;112049.66;4920064;29;20931;-79
2022/01/05 09:16:22;;;;;;;6.17;2.80;;;9.40;50.20;;;-142.21;64.08;112049.66;4937635;29;20457;-78
2022/01/05 09:18:50;;;;;;;6.33;2.10;;;9.50;50.90;;;-142.21;58.89;112049.66;4938309;29;20815;-78
2022/01/05 09:21:18;;;;;;;5.03;2.20;;;9.60;50.60;;;-142.21;62.02;112049.66;4937565;29;20458;-79
2022/01/05 09:23:45;;;;;;;6.37;2.20;;;9.70;50.60;;;-142.21;57.43;112049.66;4938068;29;20524;-78
2022/01/05 09:26:14;;;;;;;4.73;1.97;;;9.70;50.20;;;-142.21;56.49;112049.66;4937212;29;20540;-78
2022/01/05 09:28:44;;;;;;;4.10;2.40;;;9.80;50.00;;;-142.21;60.35;112049.66;4938913;29;20500;-78
2022/01/05 09:31:11;;;;;;;5.80;2.13;;;9.90;49.70;;;-142.21;59.33;112049.66;4943988;29;20818;-79
2022/01/05 09:33:39;;;;;;;5.80;1.93;;;10.00;49.20;;;-142.21;58.89;112049.66;4937095;29;20517;-79
2022/01/05 09:36:12;;;;;;;6.87;2.70;;;10.10;48.30;;;-142.21;58.07;112049.66;4919071;29;20541;-79
2022/01/05 09:44:10;;;;;;;6.90;2.40;;;11.30;47.90;;;-142.21;56.89;112049.66;4931193;29;21051;-78
2022/01/05 09:46:56;;;;;;;5.93;2.50;;;11.80;47.10;;;-142.21;54.73;112049.66;4937026;29;20468;-78
2022/01/05 09:49:32;;;;;;;7.53;2.40;;;11.90;46.80;;;-142.21;54.19;112049.66;4937255;29;20474;-79
2022/01/05 09:52:07;;;;;;;8.77;2.73;;;12.10;46.20;;;-142.21;49.86;112049.66;4938508;29;20549;-77
2022/01/05 09:54:36;;;;;;;5.77;2.50;;;12.40;45.50;;;-142.21;47.57;112049.66;4931386;29;20434;-78
2022/01/05 09:57:05;;;;;;;7.23;3.10;;;12.90;45.20;;;-142.21;47.60;112049.66;4936937;29;20813;-80
2022/01/05 09:59:35;;;;;;;8.27;2.70;;;13.80;44.90;;;-142.21;48.86;112049.66;4937236;29;20508;-78
2022/01/05 10:02:04;;;;;;;5.27;2.70;;;14.40;43.70;;;-142.21;50.81;112049.66;4920490;29;20486;-78
2022/01/05 10:04:32;;;;;;;6.63;2.83;;;13.90;43.80;;;-142.21;53.93;112049.66;4937183;29;20675;-79
2022/01/05 10:07:00;;;;;;;5.70;2.67;;;12.90;44.20;;;-142.21;57.74;112049.66;4919746;29;20489;-79
2022/01/05 10:09:27;;;;;;;9.47;2.87;;;12.20;45.30;;;-142.21;57.42;112049.66;4936241;29;20990;-78